Time;durP1;ratioP1;P1;durP2;ratioP2;P2;SDS_P1;SDS_P2;PMS_P1;PMS_P2;Temp;Humidity;BMP_temperature;BMP_pressure;BME280_temperature;BME280_humidity;BME280_pressure;Samples;Min_cycle;Max_cycle;Signal;HPM_P1;HPM_P2
2023/04/20 00:01:06;;;;;;;4.47;2.75;;;;;;;6.76;56.70;101471.56;5043758;28;20132;-62
2023/04/20 00:03:32;;;;;;;4.80;3.28;;;;;;;6.74;57.12;101472.38;5048002;28;20043;-63
2023/04/20 00:06:00;;;;;;;5.43;3.33;;;;;;;6.74;57.12;101470.69;5061655;28;20036;-63
2023/04/20 00:08:26;;;;;;;6.03;3.35;;;;;;;6.74;57.39;101473.25;5058520;28;20031;-63
2023/04/20 00:10:52;;;;;;;7.03;3.55;;;;;;;6.70;58.17;101484.34;5042447;28;20324;-65
2023/04/20 00:13:17;;;;;;;6.57;3.33;;;;;;;6.67;58.06;101484.28;5040902;28;20037;-63
2023/04/20 00:15:42;;;;;;;6.28;3.25;;;;;;;6.68;57.67;101462.88;5040859;28;20498;-63
2023/04/20 00:18:08;;;;;;;6.55;3.35;;;;;;;6.71;57.74;101455.22;5042746;28;20085;-62
2023/04/20 00:20:34;;;;;;;5.40;3.15;;;;;;;6.72;58.08;101458.66;5035843;28;20033;-64
2023/04/20 00:22:59;;;;;;;11.50;4.28;;;;;;;6.74;58.09;101449.25;5041836;28;20028;-63
2023/04/20 00:25:25;;;;;;;7.88;3.47;;;;;;;6.76;58.04;101442.47;5032884;28;20045;-62
2023/04/20 00:27:50;;;;;;;10.50;3.97;;;;;;;6.78;57.62;101443.34;5038685;28;20049;-62
2023/04/20 00:30:15;;;;;;;6.03;3.40;;;;;;;6.79;57.74;101432.25;5044944;28;20119;-62
2023/04/20 00:32:41;;;;;;;6.63;3.58;;;;;;;6.77;58.66;101426.19;5058599;28;20544;-62
2023/04/20 00:35:07;;;;;;;7.03;3.30;;;;;;;6.73;58.35;101432.13;5039098;28;20037;-63
2023/04/20 00:37:32;;;;;;;6.28;3.10;;;;;;;6.74;58.58;101431.28;5036940;28;20510;-63
2023/04/20 00:39:57;;;;;;;6.82;3.75;;;;;;;6.78;57.94;101421.09;5038246;28;20473;-63
2023/04/20 00:42:23;;;;;;;8.30;3.75;;;;;;;6.85;57.44;101401.53;5039515;28;20033;-62
2023/04/20 00:44:49;;;;;;;13.85;4.35;;;;;;;6.91;57.56;101394.75;5044267;28;20748;-63
2023/04/20 00:47:15;;;;;;;6.15;3.72;;;;;;;6.95;57.70;101395.66;5061169;28;20108;-63
2023/04/20 00:49:40;;;;;;;7.35;3.33;;;;;;;6.98;58.33;101398.28;5058189;28;20032;-62
2023/04/20 00:52:06;;;;;;;5.00;3.20;;;;;;;7.02;57.25;101388.94;5073287;28;20055;-63
2023/04/20 00:54:32;;;;;;;6.72;3.00;;;;;;;7.06;57.02;101381.28;5065094;28;20040;-62
2023/04/20 00:56:58;;;;;;;6.53;3.45;;;;;;;7.09;56.79;101377.91;5057232;28;20043;-62
2023/04/20 00:59:24;;;;;;;6.43;3.33;;;;;;;7.11;56.66;101366.81;5060384;28;20532;-62
2023/04/20 01:01:50;;;;;;;4.60;2.78;;;;;;;7.14;56.65;101363.41;5045208;28;20164;-62
2023/04/20 01:04:16;;;;;;;5.75;3.42;;;;;;;7.19;56.67;101351.53;5034253;28;20039;-62
2023/04/20 01:06:41;;;;;;;6.93;3.30;;;;;;;7.24;56.85;101344.75;5035581;28;20167;-62
2023/04/20 01:09:07;;;;;;;6.53;3.70;;;;;;;7.30;55.73;101337.09;5028490;28;20199;-62
2023/04/20 01:11:32;;;;;;;6.18;3.38;;;;;;;7.33;55.88;101335.44;5034638;28;20674;-63
2023/04/20 01:13:58;;;;;;;5.75;3.75;;;;;;;7.38;55.14;101326.09;5038511;28;20082;-62
2023/04/20 01:16:23;;;;;;;7.82;3.72;;;;;;;7.44;54.93;101322.75;5038830;28;20131;-63
2023/04/20 01:18:50;;;;;;;5.90;3.67;;;;;;;7.49;54.65;101312.50;5049699;28;20032;-62
2023/04/20 01:21:22;;;;;;;8.77;3.55;;;;;;;7.55;53.99;101307.44;5057993;28;20033;-63
2023/04/20 01:23:48;;;;;;;8.02;3.63;;;;;;;7.59;53.84;101293.78;5056504;28;20034;-63
2023/04/20 01:26:17;;;;;;;6.03;3.55;;;;;;;7.62;53.93;101297.25;5050689;28;20032;-63
2023/04/20 01:28:43;;;;;;;5.03;3.38;;;;;;;7.64;53.74;101289.53;5056985;28;20047;-62
2023/04/20 01:31:10;;;;;;;7.75;3.63;;;;;;;7.65;53.94;101287.00;5045735;28;20060;-62
2023/04/20 01:33:36;;;;;;;7.18;3.50;;;;;;;7.67;53.82;101287.00;5046203;28;20048;-62
2023/04/20 01:36:03;;;;;;;6.05;3.38;;;;;;;7.68;53.89;101281.03;5057448;28;20043;-62
2023/04/20 01:38:31;;;;;;;5.03;3.10;;;;;;;7.70;54.19;101277.63;5056567;28;20111;-63
2023/04/20 01:40:58;;;;;;;5.18;3.60;;;;;;;7.74;53.80;101287.13;5059337;28;20036;-62
2023/04/20 01:43:23;;;;;;;7.43;3.42;;;;;;;7.76;54.17;101284.53;5050622;28;20041;-62
2023/04/20 01:45:49;;;;;;;5.63;3.38;;;;;;;7.77;54.11;101270.84;5053081;28;20035;-63
2023/04/20 01:48:14;;;;;;;9.50;3.58;;;;;;;7.79;54.06;101271.72;5056250;28;20029;-62
2023/04/20 01:50:40;;;;;;;9.55;3.95;;;;;;;7.80;53.83;101271.72;5049771;28;20071;-63
2023/04/20 01:53:05;;;;;;;5.15;3.47;;;;;;;7.84;53.47;101264.91;5053947;28;20040;-62
2023/04/20 01:55:32;;;;;;;10.20;3.63;;;;;;;7.84;53.76;101272.63;5045609;28;20071;-63
2023/04/20 01:57:58;;;;;;;6.50;3.33;;;;;;;7.86;54.05;101265.78;5055189;28;20040;-63
2023/04/20 02:00:23;;;;;;;7.40;3.47;;;;;;;7.86;54.23;101260.66;5058159;28;20742;-63
2023/04/20 02:02:49;;;;;;;4.97;3.70;;;;;;;7.90;53.33;101258.09;5061496;28;20427;-62
2023/04/20 02:05:14;;;;;;;6.68;3.33;;;;;;;7.90;53.95;101257.25;5064939;28;20036;-63
2023/04/20 02:07:40;;;;;;;7.18;3.28;;;;;;;7.90;53.74;101255.53;5058602;28;20760;-62
2023/04/20 02:10:06;;;;;;;6.25;3.22;;;;;;;7.91;53.98;101246.09;5060694;28;20281;-63
2023/04/20 02:12:31;;;;;;;6.85;3.50;;;;;;;7.91;54.39;101258.97;5061572;28;20054;-62
2023/04/20 02:14:56;;;;;;;6.30;3.80;;;;;;;7.94;54.32;101248.72;5059131;28;20151;-62
2023/04/20 02:17:23;;;;;;;6.65;3.38;;;;;;;7.96;53.76;101247.88;5058500;28;20048;-63
2023/04/20 02:19:48;;;;;;;11.07;3.83;;;;;;;7.96;53.93;101237.56;5058214;28;20041;-62
2023/04/20 02:22:14;;;;;;;6.90;3.47;;;;;;;7.95;54.52;101235.84;5062426;28;20086;-63
2023/04/20 02:24:40;;;;;;;5.28;3.58;;;;;;;7.95;54.42;101240.97;5060669;28;20037;-62
2023/04/20 02:27:05;;;;;;;5.55;3.42;;;;;;;7.96;53.97;101234.13;5051217;28;20045;-62
2023/04/20 02:29:31;;;;;;;4.68;3.30;;;;;;;7.96;54.33;101228.97;5057857;28;20020;-62
2023/04/20 02:31:56;;;;;;;12.13;4.03;;;;;;;7.96;53.83;101224.72;5066535;28;20045;-63
2023/04/20 02:34:22;;;;;;;4.82;3.33;;;;;;;7.97;54.38;101221.28;5062752;28;20028;-62
2023/04/20 02:36:47;;;;;;;6.80;3.85;;;;;;;7.97;54.00;101216.16;5067063;28;20115;-63
2023/04/20 02:39:13;;;;;;;8.43;3.72;;;;;;;7.96;54.25;101214.41;5056403;28;20029;-63
2023/04/20 02:41:38;;;;;;;9.52;3.75;;;;;;;7.96;54.19;101209.25;5059138;28;20042;-64
2023/04/20 02:44:04;;;;;;;8.90;3.30;;;;;;;7.95;55.03;101210.09;5059677;28;20159;-63
2023/04/20 02:46:29;;;;;;;6.22;3.47;;;;;;;7.96;54.64;101209.25;5056312;28;20877;-63
2023/04/20 02:48:55;;;;;;;7.15;3.38;;;;;;;7.95;54.84;101209.25;5057280;28;20032;-63
2023/04/20 02:51:20;;;;;;;8.13;3.95;;;;;;;7.94;55.16;101213.53;5063103;28;20048;-62
2023/04/20 02:53:46;;;;;;;5.57;3.97;;;;;;;7.93;55.12;101214.38;5070231;28;20031;-63
2023/04/20 02:56:11;;;;;;;5.53;3.53;;;;;;;7.94;55.08;101210.97;5053893;28;20727;-63
2023/04/20 02:58:36;;;;;;;7.40;3.63;;;;;;;7.93;55.19;101213.50;5061779;28;20087;-62
2023/04/20 03:01:05;;;;;;;6.95;3.55;;;;;;;7.93;55.40;101211.81;5066246;28;20036;-62
2023/04/20 03:03:31;;;;;;;7.20;3.83;;;;;;;7.95;55.26;101194.66;5061760;28;20044;-62
2023/04/20 03:05:57;;;;;;;6.43;4.07;;;;;;;7.94;55.37;101192.09;5069286;28;20401;-62
2023/04/20 03:08:22;;;;;;;7.72;4.03;;;;;;;7.95;55.10;101194.66;5064161;28;20162;-63
2023/04/20 03:10:48;;;;;;;9.13;4.88;;;;;;;7.98;55.32;101183.56;5061440;28;20056;-62
2023/04/20 03:13:13;;;;;;;9.13;4.70;;;;;;;7.97;55.38;101204.97;5074849;28;20451;-62
2023/04/20 03:15:39;;;;;;;8.52;4.55;;;;;;;7.96;56.10;101216.97;5061501;28;20040;-62
2023/04/20 03:18:05;;;;;;;6.50;4.32;;;;;;;7.98;56.09;101214.44;5063821;28;20032;-62
2023/04/20 03:20:30;;;;;;;6.10;3.97;;;;;;;7.99;56.01;101211.00;5060856;28;20032;-62
2023/04/20 03:22:56;;;;;;;5.53;3.92;;;;;;;8.01;56.17;101227.34;5060858;28;20126;-62
2023/04/20 03:25:21;;;;;;;10.07;3.92;;;;;;;7.95;57.50;101233.25;5051496;28;20672;-62
2023/04/20 03:27:47;;;;;;;7.05;4.30;;;;;;;7.88;58.26;101249.50;5057485;28;20032;-62
2023/04/20 03:30:13;;;;;;;6.35;4.25;;;;;;;7.81;58.42;101242.56;5062013;28;20032;-62
2023/04/20 03:32:39;;;;;;;8.80;4.72;;;;;;;7.79;59.15;101254.56;5061428;28;20436;-64
2023/04/20 03:35:05;;;;;;;7.47;4.57;;;;;;;7.76;60.03;101266.53;5059772;28;20055;-62
2023/04/20 03:37:31;;;;;;;7.35;4.80;;;;;;;7.69;60.97;101285.31;5062276;28;20040;-62
2023/04/20 03:39:56;;;;;;;8.20;4.63;;;;;;;7.64;61.23;101282.69;5052839;28;20298;-62
2023/04/20 03:42:22;;;;;;;8.32;4.97;;;;;;;7.57;62.10;101287.72;5059211;28;20553;-62
2023/04/20 03:44:47;;;;;;;8.25;5.45;;;;;;;7.45;64.62;101312.47;5062811;28;20044;-62
2023/04/20 03:47:12;;;;;;;8.70;5.70;;;;;;;7.38;64.90;101294.38;5067674;28;20486;-62
2023/04/20 03:49:38;;;;;;;8.02;4.43;;;;;;;7.35;64.31;101279.78;5060273;28;20067;-62
2023/04/20 03:52:04;;;;;;;8.50;5.22;;;;;;;7.29;65.48;101296.81;5062600;28;20056;-62
2023/04/20 03:54:30;;;;;;;7.78;4.68;;;;;;;7.24;66.04;101290.78;5060774;28;21012;-62
2023/04/20 03:56:55;;;;;;;7.03;4.88;;;;;;;7.21;66.70;101286.41;5061921;28;20036;-63
2023/04/20 03:59:21;;;;;;;8.63;4.85;;;;;;;7.25;66.75;101287.34;5062362;28;20039;-63
2023/04/20 04:01:46;;;;;;;7.25;4.82;;;;;;;7.28;65.84;101266.81;5061790;28;20048;-63
2023/04/20 04:04:12;;;;;;;8.68;4.82;;;;;;;7.27;66.12;101271.06;5066225;28;20033;-63
2023/04/20 04:06:37;;;;;;;6.82;4.18;;;;;;;7.27;65.84;101280.50;5073099;28;20045;-63
2023/04/20 04:09:02;;;;;;;9.55;5.57;;;;;;;7.28;65.01;101254.81;5070315;28;20078;-63
2023/04/20 04:11:29;;;;;;;8.50;4.72;;;;;;;7.33;65.53;101271.16;5065725;28;20111;-63
2023/04/20 04:13:55;;;;;;;10.55;4.78;;;;;;;7.32;64.55;101245.44;5058357;28;20055;-62
2023/04/20 04:16:20;;;;;;;10.85;4.80;;;;;;;7.26;65.39;101271.94;5059363;28;20090;-63
2023/04/20 04:18:46;;;;;;;8.07;5.22;;;;;;;7.18;68.65;101303.53;5057128;28;20047;-63
2023/04/20 04:21:12;;;;;;;8.85;5.32;;;;;;;7.07;69.34;101300.75;5063918;28;20039;-62
2023/04/20 04:23:37;;;;;;;9.20;4.70;;;;;;;7.00;70.56;101298.09;5053791;28;20058;-63
2023/04/20 04:26:03;;;;;;;8.77;5.40;;;;;;;6.95;70.16;101286.88;5061319;28;20036;-62
2023/04/20 04:28:30;;;;;;;7.78;5.05;;;;;;;6.97;70.28;101293.78;5062487;28;20878;-63
2023/04/20 04:30:56;;;;;;;11.57;5.88;;;;;;;6.89;72.39;101297.91;5067569;28;20044;-63
2023/04/20 04:33:22;;;;;;;9.52;5.35;;;;;;;6.83;70.79;101264.44;5065432;28;20066;-63
2023/04/20 04:35:48;;;;;;;14.73;6.80;;;;;;;6.76;72.59;101278.88;5059542;28;20040;-63
2023/04/20 04:38:13;;;;;;;13.07;5.65;;;;;;;6.74;71.87;101266.84;5057875;28;20028;-63
2023/04/20 04:40:40;;;;;;;8.00;5.30;;;;;;;6.73;70.68;101232.59;5059387;28;20051;-63
2023/04/20 04:43:08;;;;;;;10.48;5.63;;;;;;;6.67;70.81;101241.94;5059174;28;20036;-63
2023/04/20 04:45:41;;;;;;;9.95;5.85;;;;;;;6.61;72.86;101270.97;5059457;28;20139;-63
2023/04/20 04:48:10;;;;;;;10.38;6.75;;;;;;;6.53;73.07;101262.25;5066345;28;20039;-63
2023/04/20 04:50:36;;;;;;;11.38;5.88;;;;;;;6.47;74.30;101261.31;5053871;28;20039;-63
2023/04/20 04:53:02;;;;;;;10.20;6.00;;;;;;;6.45;74.40;101243.31;5059438;28;20055;-63
2023/04/20 04:55:27;;;;;;;8.35;5.90;;;;;;;6.42;74.63;101243.25;5055437;28;20498;-63
2023/04/20 04:57:53;;;;;;;9.70;5.82;;;;;;;6.41;74.41;101240.69;5055872;28;20119;-63
2023/04/20 05:00:19;;;;;;;10.10;5.40;;;;;;;6.38;75.71;101240.63;5043998;28;20036;-64
2023/04/20 05:02:44;;;;;;;9.55;5.93;;;;;;;6.38;75.89;101238.06;5060586;28;20846;-63
2023/04/20 05:05:09;;;;;;;10.65;5.72;;;;;;;6.40;75.14;101231.25;5043247;28;20037;-63
2023/04/20 05:07:35;;;;;;;9.15;5.32;;;;;;;6.39;74.93;101222.66;5052746;28;21066;-63
2023/04/20 05:10:00;;;;;;;10.90;6.05;;;;;;;6.39;75.71;101226.94;5043601;28;20033;-63
2023/04/20 05:12:26;;;;;;;9.15;5.85;;;;;;;6.45;75.15;101209.06;5044089;28;20367;-63
2023/04/20 05:14:52;;;;;;;11.60;5.90;;;;;;;6.42;75.27;101216.72;5061056;28;20040;-63
2023/04/20 05:17:17;;;;;;;9.90;5.80;;;;;;;6.48;75.76;101222.81;5057946;28;20119;-63
2023/04/20 05:19:42;;;;;;;11.43;5.75;;;;;;;6.56;75.26;101221.22;5059584;28;20040;-63
2023/04/20 05:22:08;;;;;;;8.65;6.40;;;;;;;6.55;75.70;101221.22;5062185;28;20882;-64
2023/04/20 05:24:33;;;;;;;9.82;6.10;;;;;;;6.56;75.75;101228.06;5050687;28;20412;-63
2023/04/20 05:26:59;;;;;;;12.05;7.07;;;;;;;6.59;75.56;101223.81;5058046;28;20058;-63
2023/04/20 05:29:24;;;;;;;7.97;5.78;;;;;;;6.62;76.40;101225.56;5059110;28;20024;-63
2023/04/20 05:31:50;;;;;;;12.80;6.75;;;;;;;6.66;75.88;101211.94;5058882;28;20163;-63
2023/04/20 05:34:15;;;;;;;10.70;6.32;;;;;;;6.66;77.51;101215.38;5058899;28;20043;-63
2023/04/20 05:36:40;;;;;;;9.00;6.07;;;;;;;6.73;78.45;101218.91;5050644;28;20036;-63
2023/04/20 05:39:06;;;;;;;12.15;6.25;;;;;;;6.77;76.43;101208.69;5039511;28;20032;-63
2023/04/20 05:41:31;;;;;;;10.55;6.22;;;;;;;6.76;78.04;101217.22;5058130;28;20111;-64
2023/04/20 05:43:57;;;;;;;10.77;6.35;;;;;;;6.76;77.49;101214.66;5039635;28;20063;-64
2023/04/20 05:46:22;;;;;;;15.23;6.28;;;;;;;6.76;77.17;101219.78;5044846;28;20099;-63
2023/04/20 05:48:48;;;;;;;11.02;6.25;;;;;;;6.79;77.69;101216.44;5034349;28;20644;-63
2023/04/20 05:51:14;;;;;;;11.38;7.10;;;;;;;6.85;78.64;101214.78;5048602;28;20047;-63
2023/04/20 05:53:39;;;;;;;11.40;6.18;;;;;;;6.89;77.52;101210.56;5034402;28;20047;-64
2023/04/20 05:56:06;;;;;;;10.07;6.13;;;;;;;6.91;78.55;101212.31;5051506;28;20032;-63
2023/04/20 05:58:32;;;;;;;12.35;6.93;;;;;;;6.94;77.18;101215.78;5053171;28;20567;-63
2023/04/20 06:00:58;;;;;;;11.63;6.35;;;;;;;6.91;76.51;101199.44;5058746;28;20031;-63
2023/04/20 06:03:23;;;;;;;12.18;7.35;;;;;;;6.90;77.26;101213.16;5056003;28;20036;-63
2023/04/20 06:05:48;;;;;;;11.27;6.47;;;;;;;6.89;76.83;101214.00;5056814;28;20028;-63
2023/04/20 06:08:14;;;;;;;12.10;6.07;;;;;;;6.85;78.26;101221.66;5034419;28;20158;-63
2023/04/20 06:10:39;;;;;;;12.00;6.40;;;;;;;6.84;75.99;101199.38;5054126;28;20420;-63
2023/04/20 06:13:05;;;;;;;8.70;5.88;;;;;;;6.89;77.19;101208.00;5040440;28;20037;-63
2023/04/20 06:15:30;;;;;;;11.45;6.10;;;;;;;6.88;78.01;101216.56;5039900;28;20044;-63
2023/04/20 06:17:56;;;;;;;9.95;6.18;;;;;;;6.88;78.29;101216.56;5039328;28;20228;-63
2023/04/20 06:20:21;;;;;;;8.18;6.00;;;;;;;6.88;78.87;101214.00;5049418;28;20137;-63
2023/04/20 06:22:47;;;;;;;12.30;5.72;;;;;;;6.87;77.58;101210.56;5039645;28;20041;-63
2023/04/20 06:25:14;;;;;;;9.70;6.05;;;;;;;6.85;79.11;101213.94;5049160;28;20036;-63
2023/04/20 06:27:40;;;;;;;9.30;5.22;;;;;;;6.88;78.11;101208.84;5045748;28;20048;-63
2023/04/20 06:30:06;;;;;;;9.75;5.25;;;;;;;6.89;79.01;101214.00;5036845;28;20487;-63
2023/04/20 06:32:32;;;;;;;8.18;4.90;;;;;;;6.88;77.83;101209.69;5042101;28;20025;-63
2023/04/20 06:34:57;;;;;;;8.57;5.38;;;;;;;6.86;79.81;101221.66;5045581;28;20060;-63
2023/04/20 06:37:22;;;;;;;7.45;5.07;;;;;;;6.86;80.51;101219.09;5043134;28;20036;-63
2023/04/20 06:39:53;;;;;;;7.90;5.00;;;;;;;6.82;80.46;101217.31;5039504;28;20738;-63
2023/04/20 06:42:18;;;;;;;8.75;5.50;;;;;;;6.80;80.63;101213.88;5037358;28;20132;-62
2023/04/20 06:44:44;;;;;;;7.10;5.00;;;;;;;6.79;80.82;101211.28;5037068;28;20040;-63
2023/04/20 06:47:09;;;;;;;9.65;5.18;;;;;;;6.82;81.36;101208.75;5038664;28;20489;-63
2023/04/20 06:49:36;;;;;;;9.45;5.25;;;;;;;6.85;81.40;101211.38;5037010;28;20352;-64
2023/04/20 06:52:02;;;;;;;8.13;5.32;;;;;;;6.90;82.04;101213.16;5048608;28;20040;-64
2023/04/20 06:54:27;;;;;;;9.95;5.85;;;;;;;6.88;82.79;101216.56;5034628;28;20063;-63
2023/04/20 06:56:53;;;;;;;8.43;5.18;;;;;;;6.82;82.52;101214.75;5037662;28;20081;-64
2023/04/20 06:59:18;;;;;;;7.57;5.22;;;;;;;6.79;84.31;101207.00;5041093;28;20497;-64
2023/04/20 07:01:43;;;;;;;7.18;5.43;;;;;;;6.76;82.91;101201.81;5047253;28;20660;-63
2023/04/20 07:04:09;;;;;;;6.55;4.93;;;;;;;6.72;82.40;101199.19;5042399;28;20045;-64
2023/04/20 07:06:34;;;;;;;6.60;5.20;;;;;;;6.73;82.20;101203.50;5040637;28;20521;-63
2023/04/20 07:09:00;;;;;;;7.82;5.65;;;;;;;6.75;82.71;101204.38;5043304;28;20067;-63
2023/04/20 07:11:25;;;;;;;8.43;5.50;;;;;;;6.81;83.47;101204.47;5042386;28;20139;-64
2023/04/20 07:13:50;;;;;;;9.88;6.10;;;;;;;6.93;83.72;101204.63;5039542;28;20037;-64
2023/04/20 07:16:16;;;;;;;7.03;5.38;;;;;;;7.06;84.92;101203.94;5041837;28;20082;-63
2023/04/20 07:18:41;;;;;;;8.27;5.47;;;;;;;7.21;83.87;101193.03;5048923;28;20033;-63
2023/04/20 07:21:07;;;;;;;11.20;6.00;;;;;;;7.36;84.17;101193.19;5044566;28;20520;-63
2023/04/20 07:23:32;;;;;;;9.68;6.13;;;;;;;7.48;83.67;101192.50;5043835;28;20865;-64
2023/04/20 07:25:57;;;;;;;9.75;5.65;;;;;;;7.50;83.06;101189.09;5056097;28;20485;-63
2023/04/20 07:28:23;;;;;;;7.55;6.05;;;;;;;7.47;82.97;101191.63;5059567;28;20040;-64
2023/04/20 07:30:48;;;;;;;7.28;5.70;;;;;;;7.47;81.84;101186.47;5060685;28;20067;-64
2023/04/20 07:33:14;;;;;;;6.78;5.35;;;;;;;7.43;82.22;101190.72;5061651;28;20852;-64
2023/04/20 07:35:39;;;;;;;7.22;5.65;;;;;;;7.37;82.79;101184.63;5064878;28;20028;-64
2023/04/20 07:38:05;;;;;;;10.23;5.85;;;;;;;7.31;82.92;101187.13;5040222;28;20032;-64
2023/04/20 07:40:30;;;;;;;7.60;5.95;;;;;;;7.34;82.98;101188.03;5043903;28;20051;-65
2023/04/20 07:42:55;;;;;;;6.80;5.75;;;;;;;7.38;83.51;101196.66;5039234;28;20449;-64
2023/04/20 07:45:21;;;;;;;7.15;5.57;;;;;;;7.32;83.05;101188.88;5042800;28;20040;-64
2023/04/20 07:47:50;;;;;;;6.88;5.72;;;;;;;7.25;83.35;101189.63;5049305;28;20033;-64
2023/04/20 07:50:15;;;;;;;7.93;5.07;;;;;;;7.24;83.04;101187.94;5045244;28;20056;-64
2023/04/20 07:52:43;;;;;;;7.60;5.47;;;;;;;7.27;84.49;101195.66;5045968;28;20756;-64
2023/04/20 07:55:10;;;;;;;6.38;4.35;;;;;;;7.29;82.15;101181.13;5038531;28;20029;-63
2023/04/20 07:57:36;;;;;;;6.40;5.32;;;;;;;7.26;82.13;101184.53;5042450;28;20048;-63
2023/04/20 08:00:04;;;;;;;7.13;5.05;;;;;;;7.26;83.48;101189.66;5041446;28;20045;-64
2023/04/20 08:02:31;;;;;;;6.07;4.65;;;;;;;7.28;83.40;101187.09;5040307;28;20033;-63
2023/04/20 08:04:56;;;;;;;7.75;5.38;;;;;;;7.37;84.09;101185.50;5042907;28;20037;-64
2023/04/20 08:07:22;;;;;;;5.22;4.38;;;;;;;7.34;83.04;101175.19;5036690;28;20039;-64
2023/04/20 08:09:48;;;;;;;5.68;4.60;;;;;;;7.38;82.67;101173.50;5037522;28;20051;-64
2023/04/20 08:12:13;;;;;;;5.28;4.35;;;;;;;7.47;83.60;101183.91;5052445;28;20136;-63
2023/04/20 08:14:40;;;;;;;6.78;5.10;;;;;;;7.68;84.66;101175.53;5046364;28;20033;-65
2023/04/20 08:17:05;;;;;;;4.82;4.03;;;;;;;7.61;82.00;101174.59;5063209;28;20025;-64
2023/04/20 08:19:31;;;;;;;7.38;3.80;;;;;;;7.66;80.40;101172.06;5061112;28;20066;-63
2023/04/20 08:21:56;;;;;;;5.13;3.95;;;;;;;7.67;81.62;101177.25;5041443;28;20071;-63
2023/04/20 08:24:22;;;;;;;5.35;3.40;;;;;;;7.70;81.04;101172.13;5042267;28;20045;-63
2023/04/20 08:26:48;;;;;;;6.15;3.45;;;;;;;7.69;80.49;101178.13;5061701;28;20038;-64
2023/04/20 08:29:13;;;;;;;8.23;3.97;;;;;;;7.71;81.07;101179.00;5060845;28;20034;-63
2023/04/20 08:31:39;;;;;;;4.90;4.15;;;;;;;7.74;81.20;101168.75;5060472;28;20052;-63
2023/04/20 08:34:04;;;;;;;4.30;3.42;;;;;;;7.69;82.44;101167.81;5064043;28;20048;-64
2023/04/20 08:36:30;;;;;;;6.28;3.78;;;;;;;7.70;83.80;101176.41;5054549;28;20040;-65
2023/04/20 08:39:04;;;;;;;5.72;3.88;;;;;;;7.77;84.14;101173.91;5031862;28;20044;-63
2023/04/20 08:41:30;;;;;;;4.87;3.80;;;;;;;7.78;82.70;101178.19;5036636;28;20636;-63
2023/04/20 08:43:56;;;;;;;5.82;3.30;;;;;;;7.81;82.04;101164.50;5037383;28;20303;-63
2023/04/20 08:46:23;;;;;;;4.53;3.10;;;;;;;7.79;82.21;101169.66;5040068;28;20043;-64
2023/04/20 08:48:49;;;;;;;4.70;3.28;;;;;;;7.69;81.78;101169.53;5035579;28;20047;-63
2023/04/20 08:51:18;;;;;;;3.92;2.95;;;;;;;7.63;83.14;101170.34;5045072;28;20098;-63
2023/04/20 08:53:43;;;;;;;4.22;3.22;;;;;;;7.54;83.53;101167.66;5041864;28;20094;-63
2023/04/20 08:56:09;;;;;;;6.85;3.90;;;;;;;7.55;84.64;101168.53;5034099;28;20033;-64
2023/04/20 08:58:37;;;;;;;6.15;3.30;;;;;;;7.47;84.32;101173.63;5035318;28;20051;-63
2023/04/20 09:01:02;;;;;;;4.07;3.50;;;;;;;7.55;85.42;101171.09;5039779;28;20037;-63
2023/04/20 09:03:33;;;;;;;4.57;3.22;;;;;;;7.53;82.94;101160.81;5047291;28;20062;-63
2023/04/20 09:05:58;;;;;;;3.97;3.25;;;;;;;7.61;83.59;101160.88;5054447;28;20032;-63
2023/04/20 09:08:38;;;;;;;4.60;2.90;;;;;;;7.82;83.51;101153.38;5045570;28;20093;-63
2023/04/20 09:11:04;;;;;;;3.75;3.10;;;;;;;8.08;82.87;101156.16;5057199;28;20044;-63
2023/04/20 09:13:29;;;;;;;3.63;2.78;;;;;;;8.34;81.65;101154.63;5057606;28;20038;-63
2023/04/20 09:15:55;;;;;;;4.00;2.97;;;;;;;8.44;78.66;101140.97;5060214;28;20045;-63
2023/04/20 09:18:20;;;;;;;3.33;2.45;;;;;;;8.58;79.85;101141.91;5049947;28;20098;-65
2023/04/20 09:20:45;;;;;;;3.53;2.75;;;;;;;8.79;78.07;101133.41;5041685;28;20032;-64
2023/04/20 09:23:20;;;;;;;3.63;2.83;;;;;;;8.97;77.79;101123.19;5040222;28;20025;-63
2023/04/20 09:25:49;;;;;;;3.80;2.40;;;;;;;8.94;76.51;101121.47;5055968;28;20513;-63
2023/04/20 09:28:16;;;;;;;4.22;2.63;;;;;;;8.91;76.30;101116.28;5043627;28;20526;-62
2023/04/20 09:30:44;;;;;;;4.53;2.58;;;;;;;8.98;75.43;101101.72;5039519;28;20040;-63
2023/04/20 09:33:11;;;;;;;3.65;2.08;;;;;;;8.87;74.31;101100.81;5036924;28;20557;-61
2023/04/20 09:35:39;;;;;;;3.70;2.63;;;;;;;8.90;77.10;101124.88;5042818;28;20056;-61
2023/04/20 09:38:06;;;;;;;3.67;2.85;;;;;;;8.69;77.54;101139.41;5036575;28;20029;-62
2023/04/20 09:40:32;;;;;;;3.67;2.90;;;;;;;8.66;79.82;101149.69;5040561;28;20152;-62
2023/04/20 09:43:02;;;;;;;3.83;2.92;;;;;;;8.85;80.21;101141.19;5042121;28;20052;-62
2023/04/20 09:45:28;;;;;;;4.30;3.10;;;;;;;9.38;80.77;101146.53;5043166;28;20074;-62
2023/04/20 09:47:54;;;;;;;5.15;2.85;;;;;;;9.74;79.93;101138.00;5061534;28;20048;-63
2023/04/20 09:50:20;;;;;;;4.18;2.40;;;;;;;9.95;75.90;101096.72;5061231;28;20111;-63
2023/04/20 09:52:48;;;;;;;3.50;2.72;;;;;;;9.97;73.99;101079.53;5061610;28;20101;-62
2023/04/20 09:55:13;;;;;;;3.22;2.10;;;;;;;9.84;74.09;101093.28;5056172;28;20060;-62
2023/04/20 09:57:39;;;;;;;2.08;1.77;;;;;;;9.71;73.70;101092.41;5045408;28;20516;-63
2023/04/20 10:00:06;;;;;;;2.00;1.50;;;;;;;9.52;72.11;101086.38;5039784;28;20033;-63
2023/04/20 10:02:32;;;;;;;2.28;1.85;;;;;;;9.48;72.22;101097.53;5038754;28;20051;-63
2023/04/20 10:04:58;;;;;;;2.28;1.20;;;;;;;9.36;70.05;101052.78;5057537;28;20094;-62
2023/04/20 10:07:30;;;;;;;1.92;1.33;;;;;;;9.48;69.75;101060.56;5042762;28;20034;-63
2023/04/20 10:10:07;;;;;;;1.98;1.55;;;;;;;9.79;70.92;101067.50;5044434;28;20048;-63
2023/04/20 10:12:35;;;;;;;1.92;1.45;;;;;;;9.93;68.16;101013.25;5062321;28;20044;-63
2023/04/20 10:15:01;;;;;;;1.90;1.50;;;;;;;9.95;71.26;101082.09;5060851;28;20036;-64
2023/04/20 10:17:31;;;;;;;2.05;1.60;;;;;;;10.00;68.38;101033.88;5059409;28;20024;-63
2023/04/20 10:19:56;;;;;;;2.38;1.70;;;;;;;10.15;70.48;101059.66;5057617;28;20067;-63
2023/04/20 10:22:31;;;;;;;2.17;1.60;;;;;;;10.07;68.16;101022.69;5058627;28;20127;-63
2023/04/20 10:24:56;;;;;;;2.00;1.77;;;;;;;10.27;70.34;101060.53;5056537;28;20043;-63
2023/04/20 10:27:22;;;;;;;2.40;1.70;;;;;;;10.53;70.01;101063.91;5047988;28;20045;-63
2023/04/20 10:29:47;;;;;;;2.50;2.25;;;;;;;10.59;69.38;101046.66;5056170;28;20062;-63
2023/04/20 10:32:23;;;;;;;3.50;1.65;;;;;;;10.42;66.79;100996.72;5060015;28;20034;-63
2023/04/20 10:35:00;;;;;;;2.70;1.90;;;;;;;10.38;66.92;101012.25;5039771;28;20102;-63
2023/04/20 10:37:25;;;;;;;1.70;1.10;;;;;;;10.44;66.24;101005.34;5038060;28;20429;-63
2023/04/20 10:39:51;;;;;;;1.92;1.50;;;;;;;10.88;66.19;101002.53;5035668;28;20041;-63
2023/04/20 10:42:16;;;;;;;2.00;1.40;;;;;;;10.83;65.96;100996.53;5040223;28;20033;-62
2023/04/20 10:44:49;;;;;;;2.33;1.48;;;;;;;10.86;65.83;100993.91;5038127;28;20530;-63
2023/04/20 10:47:15;;;;;;;1.92;1.35;;;;;;;11.03;66.65;100997.28;5039536;28;20032;-63
2023/04/20 10:49:40;;;;;;;1.63;1.25;;;;;;;11.00;65.61;100974.00;5034357;28;20045;-63
2023/04/20 10:52:06;;;;;;;3.55;1.33;;;;;;;10.71;64.90;100979.34;5037240;28;20044;-63
2023/04/20 10:54:39;;;;;;;2.33;1.60;;;;;;;10.51;65.25;100994.09;5034623;28;20160;-63
2023/04/20 10:57:05;;;;;;;1.92;1.40;;;;;;;10.32;64.93;100996.78;5039214;28;20060;-63
2023/04/20 10:59:32;;;;;;;2.97;1.60;;;;;;;10.24;65.51;101002.81;5031709;28;20817;-63
2023/04/20 11:02:00;;;;;;;2.15;1.48;;;;;;;10.41;65.71;101002.78;5030825;28;20722;-63
2023/04/20 11:04:31;;;;;;;3.00;1.70;;;;;;;10.81;64.13;100972.41;5038632;28;20040;-63
2023/04/20 11:07:09;;;;;;;2.88;1.98;;;;;;;10.97;64.10;100986.09;5042817;28;20044;-63
2023/04/20 11:09:37;;;;;;;3.75;2.70;;;;;;;11.17;65.07;100990.28;5044101;28;20422;-63
2023/04/20 11:12:07;;;;;;;4.78;2.05;;;;;;;11.11;65.70;100999.78;5061542;28;20060;-64
2023/04/20 11:14:38;;;;;;;2.22;1.95;;;;;;;10.83;68.63;101058.59;5063727;28;20048;-63
2023/04/20 11:17:05;;;;;;;3.30;2.13;;;;;;;10.69;68.75;101052.59;5040486;28;20037;-63
2023/04/20 11:19:33;;;;;;;4.82;2.33;;;;;;;10.60;66.89;101017.31;5046147;28;20103;-63
2023/04/20 11:22:00;;;;;;;3.92;2.80;;;;;;;10.83;67.75;101032.75;5051017;28;20070;-63
2023/04/20 11:24:28;;;;;;;2.97;2.53;;;;;;;11.25;67.46;101029.00;5061895;28;20059;-63
2023/04/20 11:26:54;;;;;;;3.10;2.72;;;;;;;11.26;65.46;100989.34;5049278;28;20075;-63